createdAt,value
2022-10-25T00:01:00.908Z,10.59
2022-10-25T00:03:27.854Z,10.18
2022-10-25T00:05:54.802Z,12.11
2022-10-25T00:08:21.755Z,9.74
2022-10-25T00:10:48.725Z,9.95
2022-10-25T00:13:15.678Z,12.40
2022-10-25T00:15:43.988Z,12.46
2022-10-25T00:18:10.912Z,9.67
2022-10-25T00:20:38.621Z,11.12
2022-10-25T00:23:05.633Z,12.05
2022-10-25T00:25:32.611Z,11.93
2022-10-25T00:27:59.551Z,12.33
2022-10-25T00:30:26.489Z,10.81
2022-10-25T00:32:53.893Z,11.31
2022-10-25T00:35:20.991Z,11.91
2022-10-25T00:37:47.934Z,10.67
2022-10-25T00:40:14.954Z,10.18
2022-10-25T00:42:42.056Z,8.72
2022-10-25T00:45:27.072Z,12.32
2022-10-25T00:48:04.458Z,11.97
2022-10-25T00:50:43.172Z,12.33
2022-10-25T00:53:18.488Z,11.93
2022-10-25T00:55:49.021Z,10.50
2022-10-25T00:58:20.690Z,12.23
2022-10-25T01:00:49.150Z,11.95
2022-10-25T01:03:18.326Z,10.12
2022-10-25T01:05:45.489Z,12.33
2022-10-25T01:08:13.338Z,11.51
2022-10-25T01:10:40.498Z,8.41
2022-10-25T01:13:07.735Z,4.20
2022-10-25T01:15:46.990Z,12.49
2022-10-25T01:18:25.799Z,11.56
2022-10-25T01:21:16.309Z,12.50
2022-10-25T01:24:04.667Z,12.51
2022-10-25T01:26:46.666Z,12.52
2022-10-25T01:29:22.703Z,12.56
2022-10-25T01:31:54.408Z,12.42
2022-10-25T01:34:25.587Z,12.04
2022-10-25T01:37:03.331Z,7.11
2022-10-25T01:39:40.387Z,12.27
2022-10-25T01:42:25.425Z,12.63
2022-10-25T01:45:02.286Z,10.62
2022-10-25T01:47:29.150Z,12.62
2022-10-25T01:50:11.451Z,12.62
2022-10-25T01:52:38.572Z,12.68
2022-10-25T01:55:11.012Z,11.78
2022-10-25T01:57:46.235Z,12.70
2022-10-25T02:00:20.112Z,10.00
2022-10-25T02:03:14.851Z,12.46
2022-10-25T02:05:44.841Z,12.77
2022-10-25T02:08:29.340Z,12.78
2022-10-25T02:11:20.649Z,12.76
2022-10-25T02:14:11.895Z,11.78
2022-10-25T02:17:05.066Z,12.78
2022-10-25T02:19:40.235Z,10.68
2022-10-25T02:22:10.647Z,12.79
2022-10-25T02:24:40.813Z,10.01
2022-10-25T02:27:11.235Z,12.40
2022-10-25T02:29:40.172Z,12.51
2022-10-25T02:32:07.315Z,10.68
2022-10-25T02:34:34.796Z,12.40
2022-10-25T02:37:01.946Z,12.69
2022-10-25T02:39:31.513Z,12.78
2022-10-25T02:42:02.744Z,12.81
2022-10-25T02:44:29.615Z,12.79
2022-10-25T02:46:56.617Z,8.79
2022-10-25T02:49:23.563Z,11.83
2022-10-25T02:54:18.481Z,11.93
2022-10-25T02:56:45.426Z,10.91
2022-10-25T02:59:15.924Z,12.47
2022-10-25T03:01:42.932Z,11.81
2022-10-25T03:04:09.892Z,10.08
2022-10-25T03:06:36.894Z,9.10
2022-10-25T03:09:04.519Z,11.41
2022-10-25T03:11:31.466Z,11.73
2022-10-25T03:13:58.410Z,10.63
2022-10-25T03:16:25.473Z,12.04
2022-10-25T03:18:52.367Z,11.79
2022-10-25T03:21:19.314Z,12.40
2022-10-25T03:23:46.443Z,11.94
2022-10-25T03:26:13.425Z,12.25
2022-10-25T03:28:40.334Z,10.75
2022-10-25T03:31:13.473Z,12.59
2022-10-25T03:33:41.150Z,12.58
2022-10-25T03:36:08.856Z,11.70
2022-10-25T03:38:35.825Z,9.46
2022-10-25T03:41:02.846Z,11.55
2022-10-25T03:43:29.843Z,11.18
2022-10-25T03:45:56.917Z,12.44
2022-10-25T03:48:23.931Z,9.20
2022-10-25T03:50:50.867Z,10.00
2022-10-25T03:53:17.719Z,8.85
2022-10-25T03:55:44.664Z,4.94
2022-10-25T03:58:11.651Z,12.34
2022-10-25T04:00:39.064Z,11.66
2022-10-25T04:05:33.891Z,12.32
2022-10-25T04:08:00.863Z,12.16
2022-10-25T04:10:28.096Z,12.51
2022-10-25T04:12:55.399Z,9.68
2022-10-25T04:15:23.637Z,11.54
2022-10-25T04:17:54.086Z,12.53
2022-10-25T04:20:21.821Z,12.50
2022-10-25T04:22:57.006Z,12.50
2022-10-25T04:25:25.431Z,11.21
2022-10-25T04:27:52.352Z,12.39
2022-10-25T04:30:19.570Z,11.79
2022-10-25T04:32:46.852Z,10.52
2022-10-25T04:35:14.247Z,10.72
2022-10-25T04:37:41.271Z,10.40
2022-10-25T04:40:08.982Z,11.17
2022-10-25T04:42:36.162Z,10.83
2022-10-25T04:45:03.240Z,11.54
2022-10-25T04:47:34.147Z,11.48
2022-10-25T04:50:01.323Z,11.58
2022-10-25T04:52:32.294Z,12.48
2022-10-25T04:55:00.488Z,11.34
2022-10-25T04:57:27.471Z,10.91
2022-10-25T04:59:54.540Z,12.39
2022-10-25T05:02:21.437Z,10.21
2022-10-25T05:04:48.345Z,11.40
2022-10-25T05:07:18.985Z,12.09
2022-10-25T05:09:47.500Z,12.11
2022-10-25T05:12:15.388Z,12.47
2022-10-25T05:14:42.404Z,4.03
2022-10-25T05:17:09.363Z,12.49
2022-10-25T05:19:36.313Z,9.67
2022-10-25T05:22:03.519Z,12.14
2022-10-25T05:24:30.646Z,11.48
2022-10-25T05:26:57.562Z,10.42
2022-10-25T05:29:24.611Z,10.81
2022-10-25T05:31:51.650Z,11.27
2022-10-25T05:34:18.711Z,4.27
2022-10-25T05:36:45.717Z,6.60
2022-10-25T05:39:12.610Z,5.12
2022-10-25T05:41:39.661Z,5.39
2022-10-25T05:44:06.846Z,12.85
2022-10-25T05:46:34.034Z,11.76
2022-10-25T05:49:01.262Z,10.58
2022-10-25T05:51:36.774Z,12.91
2022-10-25T05:54:10.087Z,12.53
2022-10-25T05:56:37.809Z,10.20
2022-10-25T05:59:10.115Z,12.55
2022-10-25T06:01:47.396Z,10.73
2022-10-25T06:04:15.574Z,12.91
2022-10-25T06:06:44.307Z,12.30
2022-10-25T06:09:11.810Z,10.70
2022-10-25T06:11:39.983Z,12.91
2022-10-25T06:14:07.556Z,12.50
2022-10-25T06:16:34.574Z,8.53
2022-10-25T06:19:01.568Z,8.18
2022-10-25T06:21:30.255Z,12.60
2022-10-25T06:23:59.432Z,12.98
2022-10-25T06:26:28.878Z,9.58
2022-10-25T06:29:01.483Z,13.09
2022-10-25T06:31:29.855Z,12.70
2022-10-25T06:33:56.994Z,11.42
2022-10-25T06:36:27.270Z,13.24
2022-10-25T06:38:54.970Z,10.39
2022-10-25T06:41:24.987Z,13.26
2022-10-25T06:43:52.297Z,13.16
2022-10-25T06:46:28.580Z,13.28
2022-10-25T06:48:57.227Z,13.15
2022-10-25T06:51:26.043Z,13.15
2022-10-25T06:53:57.869Z,13.19
2022-10-25T06:56:26.044Z,12.87
2022-10-25T06:58:53.241Z,12.12
2022-10-25T07:01:22.341Z,10.40
2022-10-25T07:03:51.240Z,12.71
2022-10-25T07:06:22.853Z,13.43
2022-10-25T07:08:53.855Z,13.56
2022-10-25T07:11:21.703Z,11.94
2022-10-25T07:13:48.732Z,8.45
2022-10-25T07:16:18.100Z,11.51
2022-10-25T07:18:45.580Z,7.63
2022-10-25T07:21:22.952Z,10.42
2022-10-25T07:23:51.393Z,13.71
2022-10-25T07:26:21.781Z,11.82
2022-10-25T07:28:52.437Z,13.62
2022-10-25T07:31:25.308Z,11.08
2022-10-25T07:33:53.974Z,13.66
2022-10-25T07:36:21.331Z,11.32
2022-10-25T07:38:48.483Z,13.60
2022-10-25T07:41:15.770Z,13.55
2022-10-25T07:43:42.708Z,13.37
2022-10-25T07:46:09.768Z,13.83
2022-10-25T07:48:37.745Z,13.54
2022-10-25T07:51:13.945Z,5.67
2022-10-25T07:53:41.094Z,13.92
2022-10-25T07:56:13.089Z,12.07
2022-10-25T07:58:41.017Z,10.96
2022-10-25T08:01:10.162Z,13.70
2022-10-25T08:03:37.807Z,13.30
2022-10-25T08:06:05.281Z,13.97
2022-10-25T08:08:32.701Z,13.34
2022-10-25T08:11:00.028Z,13.32
2022-10-25T08:13:26.930Z,14.45
2022-10-25T08:15:55.867Z,13.22
2022-10-25T08:18:24.021Z,14.82
2022-10-25T08:21:02.343Z,14.09
2022-10-25T08:23:32.092Z,14.98
2022-10-25T08:25:59.723Z,14.78
2022-10-25T08:28:26.917Z,14.74
2022-10-25T08:30:55.761Z,14.17
2022-10-25T08:33:23.758Z,14.78
2022-10-25T08:35:50.922Z,14.28
2022-10-25T08:38:18.666Z,14.55
2022-10-25T08:41:14.755Z,14.70
2022-10-25T08:44:09.923Z,14.67
2022-10-25T08:46:48.915Z,14.55
2022-10-25T08:49:45.467Z,14.77
2022-10-25T08:52:28.821Z,12.97
2022-10-25T08:55:01.753Z,14.04
2022-10-25T08:57:34.826Z,14.73
2022-10-25T09:00:07.763Z,13.97
2022-10-25T09:02:34.837Z,14.89
2022-10-25T09:05:01.927Z,9.30
2022-10-25T09:07:42.740Z,14.75
2022-10-25T09:10:24.594Z,13.86
2022-10-25T09:13:15.001Z,12.18
2022-10-25T09:15:43.144Z,14.74
2022-10-25T09:18:23.699Z,14.32
2022-10-25T09:20:52.605Z,14.84
2022-10-25T09:23:31.591Z,14.47
2022-10-25T09:26:15.719Z,12.06
2022-10-25T09:28:54.785Z,14.92
2022-10-25T09:31:26.109Z,11.65
2022-10-25T09:34:11.893Z,12.54
2022-10-25T09:36:46.512Z,14.72
2022-10-25T09:39:26.030Z,14.84
2022-10-25T09:41:57.482Z,14.12
2022-10-25T09:44:30.640Z,14.79
2022-10-25T09:47:03.639Z,14.82
2022-10-25T09:49:49.535Z,14.83
2022-10-25T09:52:40.881Z,15.08
2022-10-25T09:55:26.638Z,14.93
2022-10-25T09:57:54.544Z,13.67
2022-10-25T10:00:24.699Z,13.96
2022-10-25T10:02:51.864Z,12.36
2022-10-25T10:05:21.598Z,15.05
2022-10-25T10:07:50.410Z,15.04
2022-10-25T10:10:25.527Z,14.91
2022-10-25T10:13:29.385Z,12.55
2022-10-25T10:16:16.310Z,14.68
2022-10-25T10:18:44.755Z,13.87
2022-10-25T10:21:11.661Z,14.89
2022-10-25T10:23:45.121Z,14.93
2022-10-25T10:26:21.897Z,14.92
2022-10-25T10:28:51.517Z,14.35
2022-10-25T10:31:20.533Z,14.94
2022-10-25T10:33:49.669Z,14.95
2022-10-25T10:36:24.286Z,14.95
2022-10-25T10:38:51.866Z,12.79
2022-10-25T10:41:28.018Z,14.04
2022-10-25T10:44:14.487Z,15.26
2022-10-25T10:46:48.048Z,14.03
2022-10-25T10:49:16.416Z,15.32
2022-10-25T10:51:45.997Z,15.39
2022-10-25T10:54:14.073Z,14.05
2022-10-25T10:56:41.116Z,15.10
2022-10-25T10:59:25.909Z,13.75
2022-10-25T11:01:53.260Z,10.58
2022-10-25T11:04:21.860Z,14.47
2022-10-25T11:06:49.897Z,14.69
2022-10-25T11:09:23.943Z,14.58
2022-10-25T11:12:26.567Z,14.03
2022-10-25T11:14:56.052Z,14.53
2022-10-25T11:17:30.300Z,14.18
2022-10-25T11:20:06.227Z,13.05
2022-10-25T11:22:48.326Z,16.05
2022-10-25T11:25:36.143Z,15.26
2022-10-25T11:28:17.046Z,14.43
2022-10-25T11:31:05.846Z,16.05
2022-10-25T11:34:05.598Z,16.22
2022-10-25T11:36:37.751Z,16.48
2022-10-25T11:39:19.827Z,16.75
2022-10-25T11:41:53.855Z,16.92
2022-10-25T11:45:04.871Z,16.80
2022-10-25T11:48:01.221Z,16.83
2022-10-25T11:50:55.156Z,17.09
2022-10-25T11:53:47.427Z,17.19
2022-10-25T11:57:02.100Z,17.25
2022-10-25T12:00:12.532Z,16.84
2022-10-25T12:02:58.129Z,17.44
2022-10-25T12:05:37.169Z,17.53
2022-10-25T12:08:07.069Z,17.73
2022-10-25T12:10:43.296Z,17.73
2022-10-25T12:13:34.485Z,16.40
2022-10-25T12:16:05.219Z,16.88
2022-10-25T12:18:43.935Z,17.51
2022-10-25T12:21:16.701Z,16.72
2022-10-25T12:23:47.191Z,16.36
2022-10-25T12:26:25.744Z,17.24
2022-10-25T12:28:53.211Z,16.28
2022-10-25T12:31:22.735Z,16.58
2022-10-25T12:33:59.053Z,14.81
2022-10-25T12:36:36.689Z,15.34
2022-10-25T12:39:13.714Z,16.02
2022-10-25T12:41:45.590Z,17.00
2022-10-25T12:44:18.145Z,15.62
2022-10-25T12:46:53.811Z,16.94
2022-10-25T12:49:39.642Z,17.01
2022-10-25T12:52:31.766Z,15.87
2022-10-25T12:55:23.183Z,16.94
2022-10-25T12:58:08.746Z,16.98
2022-10-25T13:00:56.773Z,15.79
2022-10-25T13:03:29.321Z,16.90
2022-10-25T13:06:11.621Z,16.96
2022-10-25T13:08:40.534Z,16.95
2022-10-25T13:11:09.635Z,16.38
2022-10-25T13:13:40.501Z,16.80
2022-10-25T13:16:11.289Z,14.46
2022-10-25T13:18:43.203Z,16.81
2022-10-25T13:21:11.850Z,15.32
2022-10-25T13:23:51.844Z,16.65
2022-10-25T13:26:21.368Z,14.51
2022-10-25T13:28:53.851Z,16.23
2022-10-25T13:31:35.874Z,16.54
2022-10-25T13:34:15.159Z,16.43
2022-10-25T13:36:59.366Z,16.43
2022-10-25T13:39:43.146Z,16.54
2022-10-25T13:42:16.371Z,16.50
2022-10-25T13:45:02.358Z,16.57
2022-10-25T13:47:38.270Z,16.54
2022-10-25T13:50:30.181Z,16.48
2022-10-25T13:53:03.090Z,13.51
2022-10-25T13:55:35.821Z,15.79
2022-10-25T13:58:23.207Z,13.37
2022-10-25T14:00:53.691Z,14.74
2022-10-25T14:03:35.213Z,15.73
2022-10-25T14:06:02.134Z,16.29
2022-10-25T14:08:43.737Z,15.64
2022-10-25T14:11:27.138Z,16.04
2022-10-25T14:14:02.215Z,15.94
2022-10-25T14:16:33.175Z,15.60
2022-10-25T14:19:06.580Z,15.33
2022-10-25T14:21:34.280Z,12.01
2022-10-25T14:24:07.832Z,15.30
2022-10-25T14:26:34.796Z,14.34
2022-10-25T14:29:17.866Z,15.52
2022-10-25T14:31:45.687Z,15.31
2022-10-25T14:34:24.315Z,14.14
2022-10-25T14:36:57.677Z,15.32
2022-10-25T14:39:28.399Z,15.62
2022-10-25T14:41:57.063Z,15.55
2022-10-25T14:44:32.862Z,15.53
2022-10-25T14:47:00.747Z,15.36
2022-10-25T14:49:29.260Z,12.88
2022-10-25T14:52:03.318Z,14.60
2022-10-25T14:54:34.236Z,11.72
2022-10-25T14:57:05.185Z,9.69
2022-10-25T14:59:48.701Z,14.49
2022-10-25T15:02:20.592Z,14.20
2022-10-25T15:04:50.275Z,12.67
2022-10-25T15:07:22.805Z,12.04
2022-10-25T15:09:51.666Z,13.61
2022-10-25T15:12:22.814Z,14.83
2022-10-25T15:14:54.761Z,14.65
2022-10-25T15:17:31.249Z,14.86
2022-10-25T15:20:07.117Z,9.56
2022-10-25T15:22:39.794Z,14.79
2022-10-25T15:25:24.835Z,14.77
2022-10-25T15:27:57.138Z,13.34
2022-10-25T15:30:38.190Z,14.65
2022-10-25T15:33:09.807Z,13.34
2022-10-25T15:35:47.100Z,13.99
2022-10-25T15:38:14.276Z,14.27
2022-10-25T15:40:42.368Z,14.66
2022-10-25T15:43:09.294Z,14.35
2022-10-25T15:45:38.141Z,11.51
2022-10-25T15:48:14.546Z,13.09
2022-10-25T15:50:47.976Z,12.95
2022-10-25T15:53:14.926Z,11.12
2022-10-25T15:55:42.738Z,14.14
2022-10-25T15:58:10.800Z,8.61
2022-10-25T16:00:38.106Z,14.41
2022-10-25T16:03:06.302Z,12.14
2022-10-25T16:05:37.004Z,11.54
2022-10-25T16:08:04.886Z,14.24
2022-10-25T16:10:32.470Z,14.27
2022-10-25T16:13:04.956Z,13.21
2022-10-25T16:15:32.869Z,13.11
2022-10-25T16:17:59.758Z,12.73
2022-10-25T16:20:29.439Z,14.19
2022-10-25T16:22:57.428Z,12.50
2022-10-25T16:25:30.517Z,12.52
2022-10-25T16:28:01.400Z,14.24
2022-10-25T16:30:34.170Z,12.20
2022-10-25T16:33:01.326Z,14.25
2022-10-25T16:35:28.252Z,12.79
2022-10-25T16:37:55.182Z,12.33
2022-10-25T16:40:22.587Z,14.19
2022-10-25T16:42:50.058Z,14.20
2022-10-25T16:45:28.098Z,14.13
2022-10-25T16:47:57.039Z,12.36
2022-10-25T16:50:29.686Z,14.10
2022-10-25T16:52:59.653Z,14.10
2022-10-25T16:55:29.084Z,14.10
2022-10-25T16:57:59.320Z,13.47
2022-10-25T17:00:27.746Z,11.92
2022-10-25T17:02:54.938Z,13.83
2022-10-25T17:05:24.463Z,13.53
2022-10-25T17:07:51.847Z,14.14
2022-10-25T17:10:20.318Z,14.02
2022-10-25T17:12:50.058Z,14.02
2022-10-25T17:15:18.141Z,13.78
2022-10-25T17:17:46.872Z,12.47
2022-10-25T17:20:16.033Z,12.43
2022-10-25T17:22:43.722Z,13.98
2022-10-25T17:25:11.636Z,14.04
2022-10-25T17:27:40.800Z,12.31
2022-10-25T17:30:10.543Z,14.07
2022-10-25T17:32:38.296Z,13.37
2022-10-25T17:35:08.527Z,12.31
2022-10-25T17:37:36.017Z,11.50
2022-10-25T17:40:02.939Z,11.84
2022-10-25T17:42:30.005Z,13.15
2022-10-25T17:44:57.017Z,12.14
2022-10-25T17:47:24.146Z,13.61
2022-10-25T17:49:51.400Z,13.21
2022-10-25T17:52:18.334Z,7.75
2022-10-25T17:54:45.318Z,11.61
2022-10-25T17:57:12.404Z,13.10
2022-10-25T17:59:39.254Z,13.87
2022-10-25T18:02:06.339Z,12.58
2022-10-25T18:04:51.745Z,13.82
2022-10-25T18:07:20.096Z,11.85
2022-10-25T18:09:47.105Z,11.66
2022-10-25T18:12:14.093Z,13.73
2022-10-25T18:14:41.017Z,12.63
2022-10-25T18:17:08.007Z,12.13
2022-10-25T18:19:34.915Z,13.76
2022-10-25T18:22:04.507Z,11.73
2022-10-25T18:24:31.602Z,12.86
2022-10-25T18:26:59.078Z,13.09
2022-10-25T18:29:26.060Z,13.41
2022-10-25T18:31:52.979Z,12.89
2022-10-25T18:34:19.968Z,11.84
2022-10-25T18:36:46.934Z,12.70
2022-10-25T18:39:13.935Z,11.77
2022-10-25T18:41:44.562Z,10.70
2022-10-25T18:44:15.151Z,9.65
2022-10-25T18:46:42.972Z,13.41
2022-10-25T18:49:14.716Z,12.63
2022-10-25T18:51:42.282Z,11.12
2022-10-25T18:54:11.798Z,11.15
2022-10-25T18:56:38.764Z,13.22
2022-10-25T18:59:05.731Z,8.15
2022-10-25T19:01:33.314Z,12.94
2022-10-25T19:04:02.254Z,11.15
2022-10-25T19:06:29.962Z,12.18
2022-10-25T19:08:56.915Z,13.26
2022-10-25T19:11:24.361Z,12.44
2022-10-25T19:13:55.983Z,13.16
2022-10-25T19:16:23.942Z,11.06
2022-10-25T19:18:51.075Z,11.40
2022-10-25T19:21:18.896Z,13.22
2022-10-25T19:23:46.898Z,13.19
2022-10-25T19:26:19.869Z,11.72
2022-10-25T19:28:47.373Z,12.04
2022-10-25T19:31:16.801Z,13.07
2022-10-25T19:33:49.103Z,12.06
2022-10-25T19:36:17.545Z,10.98
2022-10-25T19:38:51.124Z,11.22
2022-10-25T19:41:20.864Z,4.14
2022-10-25T19:43:48.063Z,9.40
2022-10-25T19:46:15.768Z,12.84
2022-10-25T19:48:43.019Z,7.37
2022-10-25T19:51:18.843Z,12.52
2022-10-25T19:53:46.450Z,12.85
2022-10-25T19:56:17.768Z,11.79
2022-10-25T19:58:44.819Z,12.92
2022-10-25T20:01:29.573Z,12.09
2022-10-25T20:03:58.499Z,12.94
2022-10-25T20:06:31.058Z,12.97
2022-10-25T20:08:59.760Z,11.07
2022-10-25T20:11:27.745Z,12.61
2022-10-25T20:13:55.984Z,10.20
2022-10-25T20:16:23.675Z,11.85
2022-10-25T20:18:51.122Z,12.93
2022-10-25T20:21:21.113Z,12.33
2022-10-25T20:23:53.302Z,12.92
2022-10-25T20:26:23.417Z,12.88
2022-10-25T20:28:53.559Z,12.58
2022-10-25T20:31:23.268Z,12.87
2022-10-25T20:33:50.470Z,12.87
2022-10-25T20:36:18.116Z,12.92
2022-10-25T20:38:46.660Z,12.92
2022-10-25T20:41:17.094Z,10.95
2022-10-25T20:44:01.135Z,11.89
2022-10-25T20:46:29.072Z,12.53
2022-10-25T20:48:57.688Z,12.76
2022-10-25T20:51:24.693Z,11.90
2022-10-25T20:53:51.642Z,12.58
2022-10-25T20:56:20.600Z,12.09
2022-10-25T20:58:48.111Z,11.22
2022-10-25T21:01:15.316Z,10.28
2022-10-25T21:03:42.838Z,12.74
2022-10-25T21:06:14.715Z,12.81
2022-10-25T21:08:42.010Z,11.81
2022-10-25T21:11:12.097Z,12.08
2022-10-25T21:13:39.200Z,10.48
2022-10-25T21:16:14.744Z,12.76
2022-10-25T21:18:42.750Z,11.42
2022-10-25T21:21:15.831Z,11.53
2022-10-25T21:23:42.781Z,11.16
2022-10-25T21:26:10.423Z,10.41
2022-10-25T21:28:39.525Z,12.74
2022-10-25T21:31:17.015Z,10.03
2022-10-25T21:33:50.117Z,12.66
2022-10-25T21:36:19.401Z,10.33
2022-10-25T21:38:46.444Z,9.92
2022-10-25T21:41:20.991Z,12.67
2022-10-25T21:43:49.534Z,9.34
2022-10-25T21:46:18.308Z,12.61
2022-10-25T21:48:47.526Z,12.60
2022-10-25T21:51:15.227Z,10.64
2022-10-25T21:53:42.266Z,11.26
2022-10-25T21:56:12.390Z,12.24
2022-10-25T21:58:40.564Z,12.61
2022-10-25T22:01:12.731Z,11.22
2022-10-25T22:03:40.681Z,11.70
2022-10-25T22:06:09.386Z,12.64
2022-10-25T22:08:36.799Z,12.59
2022-10-25T22:11:11.309Z,11.74
2022-10-25T22:13:38.302Z,11.91
2022-10-25T22:16:11.415Z,12.64
2022-10-25T22:18:39.693Z,10.74
2022-10-25T22:21:09.214Z,12.54
2022-10-25T22:23:36.433Z,12.58
2022-10-25T22:26:06.910Z,12.46
2022-10-25T22:28:40.765Z,12.50
2022-10-25T22:31:12.911Z,10.30
2022-10-25T22:33:41.004Z,11.61
2022-10-25T22:36:13.254Z,12.40
2022-10-25T22:38:40.490Z,12.24
2022-10-25T22:41:16.048Z,12.42
2022-10-25T22:43:43.555Z,11.44
2022-10-25T22:46:17.083Z,12.10
2022-10-25T22:48:45.464Z,11.43
2022-10-25T22:51:12.917Z,11.78
2022-10-25T22:53:40.367Z,10.81
2022-10-25T23:06:31.085Z,12.02
2022-10-25T23:09:00.297Z,11.64
2022-10-25T23:11:29.524Z,11.53
2022-10-25T23:14:02.015Z,12.29
2022-10-25T23:16:29.552Z,11.70
2022-10-25T23:18:57.319Z,11.33
2022-10-25T23:21:26.703Z,11.23
2022-10-25T23:23:54.746Z,12.26
2022-10-25T23:26:23.022Z,12.15
2022-10-25T23:28:50.635Z,11.22
2022-10-25T23:31:18.054Z,9.68
2022-10-25T23:33:45.707Z,10.97
2022-10-25T23:36:15.902Z,12.19
2022-10-25T23:38:43.568Z,11.82
2022-10-25T23:41:10.718Z,10.68
2022-10-25T23:43:38.070Z,11.19
2022-10-25T23:46:06.368Z,11.32
2022-10-25T23:48:33.867Z,11.32
2022-10-25T23:51:06.775Z,10.84
2022-10-25T23:53:34.664Z,12.04
2022-10-25T23:56:03.355Z,12.05
2022-10-25T23:58:30.362Z,7.54
